createdAt,value
2019-01-03T00:01:57.964Z,102522.59
2019-01-03T00:05:01.518Z,102529.76
2019-01-03T00:07:48.700Z,102533.17
2019-01-03T00:10:33.035Z,102534.56
2019-01-03T00:13:34.355Z,102532.11
2019-01-03T00:16:26.055Z,102532.11
2019-01-03T00:19:13.300Z,102539.53
2019-01-03T00:22:00.538Z,102540.39
2019-01-03T00:24:55.715Z,102542.06
2019-01-03T00:27:57.086Z,102535.52
2019-01-03T00:30:44.372Z,102539.05
2019-01-03T00:33:31.804Z,102538.44
2019-01-03T00:36:19.638Z,102535.64
2019-01-03T00:39:06.485Z,102533.90
2019-01-03T00:42:07.252Z,102540.44
2019-01-03T00:45:01.847Z,102543.25
2019-01-03T00:47:52.137Z,102545.25
2019-01-03T00:50:40.874Z,102546.52
2019-01-03T00:53:22.389Z,102549.84
2019-01-03T00:56:07.773Z,102555.03
2019-01-03T00:58:55.099Z,102550.42
2019-01-03T01:01:57.202Z,102554.45
2019-01-03T01:04:52.388Z,102554.05
2019-01-03T01:07:40.498Z,102560.45
2019-01-03T01:10:31.603Z,102558.95
2019-01-03T01:13:18.692Z,102562.91
2019-01-03T01:16:05.744Z,102561.55
2019-01-03T01:18:55.659Z,102573.30
2019-01-03T01:21:39.129Z,102573.27
2019-01-03T01:24:29.161Z,102573.09
2019-01-03T01:27:10.248Z,102571.91
2019-01-03T01:29:57.673Z,102582.02
2019-01-03T01:32:45.286Z,102575.63
2019-01-03T01:35:33.226Z,102570.90
2019-01-03T01:38:17.811Z,102570.45
2019-01-03T01:41:19.795Z,102574.16
2019-01-03T01:44:19.476Z,102574.34
2019-01-03T01:47:17.712Z,102572.63
2019-01-03T01:50:09.416Z,102567.79
2019-01-03T01:52:57.959Z,102565.66
2019-01-03T01:55:57.803Z,102567.88
2019-01-03T01:58:58.957Z,102569.48
2019-01-03T02:01:42.190Z,102565.90
2019-01-03T02:04:42.785Z,102554.16
2019-01-03T02:07:29.782Z,102565.77
2019-01-03T02:10:22.486Z,102564.95
2019-01-03T02:13:09.614Z,102572.13
2019-01-03T02:15:54.596Z,102568.25
2019-01-03T02:18:45.259Z,102575.83
2019-01-03T02:21:32.941Z,102575.97
2019-01-03T02:24:11.185Z,102569.79
2019-01-03T02:27:02.802Z,102563.05
2019-01-03T02:30:04.563Z,102562.55
2019-01-03T02:32:46.089Z,102564.23
2019-01-03T02:35:49.951Z,102553.59
2019-01-03T02:38:37.347Z,102557.55
2019-01-03T02:41:24.624Z,102559.24
2019-01-03T02:44:17.369Z,102552.19
2019-01-03T02:47:01.295Z,102554.91
2019-01-03T02:49:43.205Z,102553.80
2019-01-03T02:52:35.016Z,102556.95
2019-01-03T02:55:34.309Z,102543.98
2019-01-03T02:58:26.170Z,102547.99
2019-01-03T03:01:15.198Z,102554.77
2019-01-03T03:04:10.177Z,102541.63
2019-01-03T03:06:57.765Z,102548.42
2019-01-03T03:09:58.581Z,102545.25
2019-01-03T03:12:53.202Z,102547.31
2019-01-03T03:15:45.063Z,102553.06
2019-01-03T03:18:27.933Z,102548.37
2019-01-03T03:21:19.654Z,102543.23
2019-01-03T03:23:56.530Z,102543.47
2019-01-03T03:26:38.541Z,102541.56
2019-01-03T03:29:38.305Z,102534.00
2019-01-03T03:32:31.105Z,102535.45
2019-01-03T03:35:20.874Z,102492.09
2019-01-03T03:38:05.929Z,102523.71
2019-01-03T03:40:54.474Z,102529.81
2019-01-03T03:43:43.301Z,102534.61
2019-01-03T03:46:31.095Z,102531.31
2019-01-03T03:49:28.254Z,102529.86
2019-01-03T03:52:15.869Z,102537.38
2019-01-03T03:55:04.990Z,102532.12
2019-01-03T03:57:59.618Z,102541.08
2019-01-03T04:00:57.397Z,102500.50
2019-01-03T04:03:44.486Z,102536.04
2019-01-03T04:06:34.658Z,102537.90
2019-01-03T04:09:39.322Z,102539.64
2019-01-03T04:12:37.269Z,102536.19
2019-01-03T04:15:34.790Z,102537.31
2019-01-03T04:18:22.197Z,102541.39
2019-01-03T04:21:15.256Z,102540.44
2019-01-03T04:24:02.713Z,102537.73
2019-01-03T04:26:59.714Z,102531.32
2019-01-03T04:29:51.201Z,102523.47
2019-01-03T04:32:39.142Z,102520.38
2019-01-03T04:35:42.994Z,102520.48
2019-01-03T04:38:37.539Z,102524.13
2019-01-03T04:41:24.751Z,102513.78
2019-01-03T04:44:09.659Z,102521.00
2019-01-03T04:46:49.920Z,102522.10
2019-01-03T04:49:44.825Z,102520.33
2019-01-03T04:52:32.283Z,102528.22
2019-01-03T04:55:19.567Z,102526.67
2019-01-03T04:58:07.121Z,102522.09
2019-01-03T05:01:04.866Z,102525.97
2019-01-03T05:04:09.270Z,102529.20
2019-01-03T05:07:09.690Z,102527.91
2019-01-03T05:09:56.249Z,102517.91
2019-01-03T05:12:37.261Z,102526.75
2019-01-03T05:15:15.512Z,102522.13
2019-01-03T05:18:02.832Z,102515.94
2019-01-03T05:20:51.686Z,102527.52
2019-01-03T05:23:47.668Z,102524.31
2019-01-03T05:26:28.339Z,102522.90
2019-01-03T05:29:15.755Z,102529.45
2019-01-03T05:32:02.090Z,102525.83
2019-01-03T05:34:57.176Z,102527.12
2019-01-03T05:37:39.847Z,102517.84
2019-01-03T05:40:27.247Z,102518.52
2019-01-03T05:43:16.096Z,102519.69
2019-01-03T05:46:21.425Z,102520.25
2019-01-03T05:49:25.546Z,102519.34
2019-01-03T05:52:10.364Z,102527.02
2019-01-03T05:55:14.745Z,102527.04
2019-01-03T05:58:08.932Z,102524.39
2019-01-03T06:00:51.227Z,102519.70
2019-01-03T06:03:50.538Z,102518.53
2019-01-03T06:06:41.795Z,102519.64
2019-01-03T06:09:33.796Z,102525.92
2019-01-03T06:12:13.304Z,102524.46
2019-01-03T06:15:10.945Z,102521.30
2019-01-03T06:17:55.029Z,102528.91
2019-01-03T06:20:59.015Z,102526.51
2019-01-03T06:24:06.859Z,102533.60
2019-01-03T06:27:13.858Z,102529.75
2019-01-03T06:29:58.490Z,102522.97
2019-01-03T06:32:53.164Z,102516.80
2019-01-03T06:35:44.060Z,102519.88
2019-01-03T06:38:23.662Z,102531.55
2019-01-03T06:41:13.226Z,102528.52
2019-01-03T06:44:00.847Z,102526.51
2019-01-03T06:46:59.671Z,102529.11
2019-01-03T06:49:58.848Z,102506.85
2019-01-03T06:52:46.428Z,102526.61
2019-01-03T06:55:41.163Z,102524.84
2019-01-03T06:58:29.982Z,102538.11
2019-01-03T07:01:27.772Z,102543.53
2019-01-03T07:04:22.313Z,102542.24
2019-01-03T07:07:19.215Z,102537.97
2019-01-03T07:10:11.039Z,102544.89
2019-01-03T07:13:02.049Z,102546.86
2019-01-03T07:15:47.142Z,102546.98
2019-01-03T07:18:45.989Z,102547.66
2019-01-03T07:21:32.275Z,102544.64
2019-01-03T07:24:35.850Z,102551.56
2019-01-03T07:27:42.968Z,102554.41
2019-01-03T07:30:30.365Z,102552.95
2019-01-03T07:33:18.042Z,102557.19
2019-01-03T07:36:17.924Z,102571.27
2019-01-03T07:39:09.810Z,102574.22
2019-01-03T07:42:08.285Z,102574.86
2019-01-03T07:44:56.106Z,102578.69
2019-01-03T07:47:45.411Z,102575.53
2019-01-03T07:50:48.931Z,102590.24
2019-01-03T07:53:32.412Z,102588.91
2019-01-03T07:56:20.019Z,102595.61
2019-01-03T07:59:14.172Z,102598.45
2019-01-03T08:02:03.290Z,102605.67
2019-01-03T08:04:51.279Z,102605.67
2019-01-03T08:07:47.936Z,102599.50
2019-01-03T08:10:48.474Z,102605.12
2019-01-03T08:13:40.080Z,102599.98
2019-01-03T08:16:44.859Z,102603.33
2019-01-03T08:19:35.294Z,102601.72
2019-01-03T08:22:29.642Z,102603.11
2019-01-03T08:25:24.572Z,102602.85
2019-01-03T08:28:11.895Z,102607.17
2019-01-03T08:30:59.514Z,102612.76
2019-01-03T08:34:01.186Z,102614.70
2019-01-03T08:37:08.497Z,102607.00
2019-01-03T08:39:58.183Z,102616.55
2019-01-03T08:42:52.803Z,102605.85
2019-01-03T08:45:47.629Z,102612.31
2019-01-03T08:48:35.124Z,102598.42
2019-01-03T08:51:22.974Z,102598.09
2019-01-03T08:54:17.474Z,102593.53
2019-01-03T08:57:20.423Z,102608.46
2019-01-03T09:00:21.187Z,102590.39
2019-01-03T09:03:08.312Z,102603.98
2019-01-03T09:05:56.115Z,102600.94
2019-01-03T09:08:50.181Z,102602.47
2019-01-03T09:11:48.048Z,102595.53
2019-01-03T09:14:39.942Z,102602.69
2019-01-03T09:17:26.955Z,102598.73
2019-01-03T09:20:14.018Z,102582.28
2019-01-03T09:23:02.540Z,102606.95
2019-01-03T09:26:00.358Z,102599.09
2019-01-03T09:28:47.514Z,102602.67
2019-01-03T09:31:34.927Z,102603.45
2019-01-03T09:34:30.258Z,102605.51
2019-01-03T09:37:17.710Z,102602.53
2019-01-03T09:40:06.056Z,102598.11
2019-01-03T09:42:53.038Z,102597.91
2019-01-03T09:45:22.881Z,102598.59
2019-01-03T09:47:52.383Z,102591.79
2019-01-03T09:50:22.163Z,102592.41
2019-01-03T09:52:52.259Z,102587.61
2019-01-03T09:55:22.443Z,102596.60
2019-01-03T09:57:52.614Z,102592.56
2019-01-03T10:00:22.235Z,102592.66
2019-01-03T10:02:51.751Z,102587.89
2019-01-03T10:05:22.067Z,102586.69
2019-01-03T10:07:52.390Z,102587.59
2019-01-03T10:10:21.966Z,102596.09
2019-01-03T10:12:51.509Z,102589.97
2019-01-03T10:15:22.506Z,102588.89
2019-01-03T10:17:52.596Z,102590.11
2019-01-03T10:20:22.309Z,102594.50
2019-01-03T10:22:52.081Z,102591.55
2019-01-03T10:25:21.865Z,102593.67
2019-01-03T10:27:51.634Z,102590.16
2019-01-03T10:30:21.453Z,102609.51
2019-01-03T10:32:51.034Z,102609.77
2019-01-03T10:35:20.680Z,102610.38
2019-01-03T10:37:50.337Z,102613.59
2019-01-03T10:40:20.453Z,102616.19
2019-01-03T10:42:50.675Z,102605.73
2019-01-03T10:45:20.208Z,102605.98
2019-01-03T10:47:49.685Z,102601.22
2019-01-03T10:50:19.167Z,102587.81
2019-01-03T10:52:49.112Z,102588.92
2019-01-03T10:55:19.394Z,102581.03
2019-01-03T10:57:49.016Z,102574.41
2019-01-03T11:00:18.522Z,102566.55
2019-01-03T11:02:48.743Z,102575.04
2019-01-03T11:05:18.243Z,102576.06
2019-01-03T11:07:48.083Z,102576.14
2019-01-03T11:10:17.885Z,102568.44
2019-01-03T11:12:47.818Z,102566.30
2019-01-03T11:15:17.768Z,102563.52
2019-01-03T11:17:47.547Z,102571.16
2019-01-03T11:20:17.632Z,102575.16
2019-01-03T11:22:47.547Z,102569.20
2019-01-03T11:25:17.667Z,102574.88
2019-01-03T11:27:47.170Z,102559.31
2019-01-03T11:30:16.686Z,102567.17
2019-01-03T11:32:46.324Z,102562.03
2019-01-03T11:35:16.299Z,102562.76
2019-01-03T11:37:46.459Z,102544.81
2019-01-03T11:40:17.224Z,102564.53
2019-01-03T11:42:47.010Z,102552.55
2019-01-03T11:45:16.806Z,102551.29
2019-01-03T11:47:46.416Z,102550.95
2019-01-03T11:50:16.182Z,102542.53
2019-01-03T11:52:45.833Z,102540.46
2019-01-03T11:55:15.922Z,102541.60
2019-01-03T11:57:45.402Z,102541.23
2019-01-03T12:00:15.070Z,102541.77
2019-01-03T12:02:44.550Z,102536.30
2019-01-03T12:05:14.455Z,102537.53
2019-01-03T12:07:44.314Z,102534.88
2019-01-03T12:10:14.091Z,102542.03
2019-01-03T12:12:44.345Z,102545.58
2019-01-03T12:15:14.021Z,102543.52
2019-01-03T12:17:44.445Z,102543.43
2019-01-03T12:20:14.261Z,102550.52
2019-01-03T12:22:43.759Z,102541.10
2019-01-03T12:25:13.554Z,102546.30
2019-01-03T12:27:43.653Z,102538.48
2019-01-03T12:30:13.146Z,102546.89
2019-01-03T12:32:43.012Z,102548.52
2019-01-03T12:35:12.655Z,102540.28
2019-01-03T12:37:42.445Z,102540.28
2019-01-03T12:40:12.588Z,102541.69
2019-01-03T12:42:42.980Z,102546.77
2019-01-03T12:45:12.473Z,102543.61
2019-01-03T12:47:43.126Z,102533.82
2019-01-03T12:50:12.656Z,102539.32
2019-01-03T12:52:42.979Z,102532.86
2019-01-03T12:55:12.851Z,102538.79
2019-01-03T12:57:42.516Z,102546.27
2019-01-03T13:00:13.199Z,102526.02
2019-01-03T13:02:43.257Z,102536.88
2019-01-03T13:05:13.145Z,102537.33
2019-01-03T13:07:42.718Z,102539.13
2019-01-03T13:10:13.096Z,102546.52
2019-01-03T13:12:42.778Z,102546.13
2019-01-03T13:15:12.821Z,102536.90
2019-01-03T13:17:43.214Z,102540.38
2019-01-03T13:20:12.940Z,102545.19
2019-01-03T13:22:43.383Z,102549.08
2019-01-03T13:25:13.491Z,102549.23
2019-01-03T13:27:43.454Z,102553.19
2019-01-03T13:30:13.234Z,102555.27
2019-01-03T13:32:43.405Z,102553.52
2019-01-03T13:35:13.482Z,102556.66
2019-01-03T13:37:43.482Z,102552.67
2019-01-03T13:40:14.579Z,102558.80
2019-01-03T13:42:44.421Z,102558.34
2019-01-03T13:45:14.207Z,102549.14
2019-01-03T13:47:44.341Z,102557.08
2019-01-03T13:50:14.202Z,102564.65
2019-01-03T13:52:43.986Z,102560.62
2019-01-03T13:55:13.548Z,102563.09
2019-01-03T13:57:43.590Z,102562.20
2019-01-03T14:00:14.027Z,102560.47
2019-01-03T14:02:44.145Z,102559.55
2019-01-03T14:05:13.945Z,102550.87
2019-01-03T14:07:44.024Z,102558.70
2019-01-03T14:10:14.935Z,102563.98
2019-01-03T14:12:44.419Z,102567.78
2019-01-03T14:15:14.339Z,102566.94
2019-01-03T14:17:44.385Z,102558.20
2019-01-03T14:20:14.744Z,102560.34
2019-01-03T14:22:44.350Z,102564.66
2019-01-03T14:25:14.520Z,102563.33
2019-01-03T14:27:44.347Z,102566.36
2019-01-03T14:30:14.049Z,102550.91
2019-01-03T14:32:43.550Z,102553.59
2019-01-03T14:35:13.943Z,102554.95
2019-01-03T14:37:43.484Z,102554.11
2019-01-03T14:40:13.386Z,102556.20
2019-01-03T14:42:43.156Z,102556.25
2019-01-03T14:45:12.906Z,102561.53
2019-01-03T14:47:42.860Z,102560.58
2019-01-03T14:50:13.156Z,102558.79
2019-01-03T14:52:42.646Z,102561.97
2019-01-03T14:55:12.352Z,102551.87
2019-01-03T14:57:41.906Z,102545.36
2019-01-03T15:00:13.936Z,102545.30
2019-01-03T15:02:43.709Z,102547.00
2019-01-03T15:05:14.029Z,102541.75
2019-01-03T15:07:43.664Z,102544.00
2019-01-03T15:10:13.279Z,102546.62
2019-01-03T15:12:43.071Z,102549.13
2019-01-03T15:15:12.986Z,102547.30
2019-01-03T15:17:43.447Z,102550.40
2019-01-03T15:20:14.282Z,102553.47
2019-01-03T15:22:44.105Z,102559.92
2019-01-03T15:25:14.002Z,102560.77
2019-01-03T15:27:43.570Z,102550.61
2019-01-03T15:30:13.102Z,102550.49
2019-01-03T15:32:42.945Z,102552.70
2019-01-03T15:35:12.791Z,102556.98
2019-01-03T15:37:44.696Z,102555.30
2019-01-03T15:40:16.762Z,102554.78
2019-01-03T15:42:46.880Z,102558.67
2019-01-03T15:45:16.495Z,102564.66
2019-01-03T15:47:46.964Z,102570.95
2019-01-03T15:50:16.496Z,102571.16
2019-01-03T15:52:46.438Z,102567.16
2019-01-03T15:55:16.461Z,102572.43
2019-01-03T15:57:46.895Z,102563.52
2019-01-03T16:00:16.429Z,102573.58
2019-01-03T16:02:46.851Z,102586.48
2019-01-03T16:05:16.750Z,102596.77
2019-01-03T16:07:46.851Z,102596.34
2019-01-03T16:10:16.558Z,102600.48
2019-01-03T16:12:46.459Z,102608.24
2019-01-03T16:15:16.502Z,102609.14
2019-01-03T16:17:46.848Z,102611.22
2019-01-03T16:20:16.807Z,102618.17
2019-01-03T16:22:46.744Z,102617.73
2019-01-03T16:25:16.581Z,102625.55
2019-01-03T16:27:46.553Z,102623.34
2019-01-03T16:30:16.494Z,102632.61
2019-01-03T16:32:46.674Z,102628.05
2019-01-03T16:35:18.695Z,102640.25
2019-01-03T16:37:49.026Z,102639.89
2019-01-03T16:40:19.026Z,102642.35
2019-01-03T16:42:48.789Z,102641.98
2019-01-03T16:45:18.393Z,102631.05
2019-01-03T16:47:48.193Z,102628.02
2019-01-03T16:50:18.444Z,102629.75
2019-01-03T16:52:47.972Z,102628.45
2019-01-03T16:55:17.603Z,102631.02
2019-01-03T16:57:47.102Z,102628.05
2019-01-03T17:00:17.283Z,102631.85
2019-01-03T17:02:47.085Z,102617.05
2019-01-03T17:05:17.915Z,102623.48
2019-01-03T17:07:47.767Z,102626.84
2019-01-03T17:10:18.704Z,102629.09
2019-01-03T17:12:48.289Z,102620.88
2019-01-03T17:15:18.353Z,102625.59
2019-01-03T17:17:47.895Z,102630.80
2019-01-03T17:20:17.463Z,102631.23
2019-01-03T17:22:47.631Z,102627.79
2019-01-03T17:25:18.198Z,102627.32
2019-01-03T17:27:47.718Z,102625.83
2019-01-03T17:30:18.038Z,102625.44
2019-01-03T17:32:47.721Z,102572.03
2019-01-03T17:35:17.524Z,102617.53
2019-01-03T17:37:48.172Z,102626.70
2019-01-03T17:40:19.095Z,102623.54
2019-01-03T17:42:48.731Z,102618.84
2019-01-03T17:45:18.774Z,102605.73
2019-01-03T17:47:48.977Z,102603.33
2019-01-03T17:50:19.524Z,102602.77
2019-01-03T17:52:49.506Z,102600.64
2019-01-03T17:55:22.600Z,102602.97
2019-01-03T17:57:52.291Z,102588.33
2019-01-03T18:00:23.346Z,102598.75
2019-01-03T18:02:53.232Z,102596.94
2019-01-03T18:05:22.770Z,102599.14
2019-01-03T18:07:52.869Z,102604.70
2019-01-03T18:10:22.515Z,102592.91
2019-01-03T18:12:52.234Z,102592.98
2019-01-03T18:15:23.511Z,102592.87
2019-01-03T18:17:54.664Z,102595.27
2019-01-03T18:20:24.532Z,102595.27
2019-01-03T18:22:55.126Z,102591.96
2019-01-03T18:25:24.685Z,102593.27
2019-01-03T18:27:59.617Z,102596.61
2019-01-03T18:30:29.634Z,102594.88
2019-01-03T18:32:59.179Z,102599.17
2019-01-03T18:35:28.731Z,102604.43
2019-01-03T18:37:58.441Z,102617.41
2019-01-03T18:40:28.540Z,102620.52
2019-01-03T18:42:58.205Z,102623.83
2019-01-03T18:45:28.051Z,102606.37
2019-01-03T18:47:57.770Z,102632.06
2019-01-03T18:50:27.314Z,102634.28
2019-01-03T18:52:58.367Z,102632.50
2019-01-03T18:55:27.997Z,102632.50
2019-01-03T18:57:58.286Z,102642.00
2019-01-03T19:00:32.352Z,102637.19
2019-01-03T19:03:03.724Z,102647.65
2019-01-03T19:05:33.266Z,102644.38
2019-01-03T19:08:02.763Z,102639.56
2019-01-03T19:10:33.979Z,102639.22
2019-01-03T19:13:05.322Z,102641.40
2019-01-03T19:15:34.918Z,102640.05
2019-01-03T19:18:04.674Z,102638.70
2019-01-03T19:20:34.555Z,102645.87
2019-01-03T19:23:04.061Z,102639.27
2019-01-03T19:25:33.690Z,102650.41
2019-01-03T19:28:03.263Z,102654.83
2019-01-03T19:30:32.870Z,102661.20
2019-01-03T19:33:03.368Z,102659.09
2019-01-03T19:35:33.688Z,102659.47
2019-01-03T19:38:03.263Z,102659.03
2019-01-03T19:40:32.807Z,102659.52
2019-01-03T19:43:06.669Z,102662.17
2019-01-03T19:45:37.075Z,102661.16
2019-01-03T19:48:06.607Z,102665.50
2019-01-03T19:50:37.050Z,102674.13
2019-01-03T19:53:06.824Z,102675.91
2019-01-03T19:55:36.793Z,102678.03
2019-01-03T19:58:06.405Z,102677.69
2019-01-03T20:00:36.048Z,102679.90
2019-01-03T20:03:06.094Z,102686.22
2019-01-03T20:05:35.999Z,102689.07
2019-01-03T20:08:05.562Z,102693.02
2019-01-03T20:10:35.181Z,102679.56
2019-01-03T20:13:04.815Z,102689.16
2019-01-03T20:15:34.366Z,102685.82
2019-01-03T20:18:04.104Z,102677.58
2019-01-03T20:20:33.917Z,102676.72
2019-01-03T20:23:03.955Z,102665.81
2019-01-03T20:25:35.233Z,102669.11
2019-01-03T20:28:05.028Z,102661.78
2019-01-03T20:30:34.873Z,102662.30
2019-01-03T20:33:04.376Z,102658.92
2019-01-03T20:35:34.190Z,102669.73
2019-01-03T20:38:03.890Z,102672.48
2019-01-03T20:40:33.696Z,102665.63
2019-01-03T20:43:03.581Z,102670.02
2019-01-03T20:45:33.197Z,102669.20
2019-01-03T20:48:05.213Z,102665.81
2019-01-03T20:50:34.933Z,102666.73
2019-01-03T20:53:04.863Z,102666.77
2019-01-03T20:55:38.137Z,102664.38
2019-01-03T20:58:07.988Z,102665.25
2019-01-03T21:00:37.949Z,102661.26
2019-01-03T21:03:08.641Z,102668.34
2019-01-03T21:05:40.001Z,102660.39
2019-01-03T21:08:10.991Z,102665.45
2019-01-03T21:10:40.874Z,102662.07
2019-01-03T21:13:10.792Z,102665.25
2019-01-03T21:15:40.539Z,102676.53
2019-01-03T21:18:10.378Z,102673.20
2019-01-03T21:20:43.212Z,102675.19
2019-01-03T21:23:13.054Z,102681.45
2019-01-03T21:25:43.072Z,102685.02
2019-01-03T21:28:12.672Z,102683.85
2019-01-03T21:30:43.052Z,102685.25
2019-01-03T21:33:12.554Z,102677.44
2019-01-03T21:35:42.502Z,102673.35
2019-01-03T21:38:12.041Z,102672.00
2019-01-03T21:40:42.137Z,102664.72
2019-01-03T21:43:11.742Z,102669.88
2019-01-03T21:45:41.590Z,102656.48
2019-01-03T21:48:11.249Z,102655.81
2019-01-03T21:50:41.048Z,102668.83
2019-01-03T21:53:10.869Z,102656.72
2019-01-03T21:55:40.704Z,102653.22
2019-01-03T21:58:10.200Z,102656.63
2019-01-03T22:00:40.332Z,102658.76
2019-01-03T22:03:10.337Z,102658.76
2019-01-03T22:05:39.891Z,102656.34
2019-01-03T22:08:09.776Z,102652.30
2019-01-03T22:10:39.703Z,102660.87
2019-01-03T22:13:14.002Z,102659.72
2019-01-03T22:15:45.275Z,102659.23
2019-01-03T22:18:16.106Z,102654.13
2019-01-03T22:20:46.985Z,102648.20
2019-01-03T22:23:17.418Z,102647.58
2019-01-03T22:25:49.407Z,102646.61
2019-01-03T22:28:19.031Z,102646.95
2019-01-03T22:30:48.852Z,102640.59
2019-01-03T22:33:19.679Z,102633.98
2019-01-03T22:35:49.276Z,102642.57
2019-01-03T22:38:19.091Z,102629.56
2019-01-03T22:40:48.924Z,102630.09
2019-01-03T22:43:18.492Z,102628.30
2019-01-03T22:45:48.389Z,102621.60
2019-01-03T22:48:18.237Z,102616.46
2019-01-03T22:50:48.060Z,102617.90
2019-01-03T22:53:17.910Z,102613.42
2019-01-03T22:55:47.357Z,102615.98
2019-01-03T22:58:17.159Z,102616.07
2019-01-03T23:00:51.672Z,102611.30
2019-01-03T23:03:21.241Z,102616.84
2019-01-03T23:05:50.809Z,102615.50
2019-01-03T23:08:20.327Z,102614.86
2019-01-03T23:14:27.595Z,102605.66
2019-01-03T23:16:57.455Z,102606.83
2019-01-03T23:19:38.188Z,102605.95
2019-01-03T23:22:07.812Z,102608.59
2019-01-03T23:24:38.306Z,102605.95
2019-01-03T23:27:07.810Z,102599.69
2019-01-03T23:29:37.655Z,102606.53
2019-01-03T23:32:07.387Z,102606.58
2019-01-03T23:34:37.294Z,102596.70
2019-01-03T23:37:07.081Z,102607.34
2019-01-03T23:39:37.033Z,102603.20
2019-01-03T23:42:07.099Z,102611.84
2019-01-03T23:44:36.843Z,102609.17
2019-01-03T23:47:06.932Z,102619.53
2019-01-03T23:49:36.862Z,102621.08
2019-01-03T23:52:06.791Z,102621.16
2019-01-03T23:54:36.609Z,102615.96
2019-01-03T23:57:06.126Z,102612.16
2019-01-03T23:59:35.728Z,102618.42
